Time;durP1;ratioP1;P1;durP2;ratioP2;P2;SDS_P1;SDS_P2;PMS_P1;PMS_P2;Temp;Humidity;BMP_temperature;BMP_pressure;BME280_temperature;BME280_humidity;BME280_pressure;Samples;Min_cycle;Max_cycle;Signal;HPM_P1;HPM_P2
2023/08/05 00:01:57;;;;;;;4.72;2.70;;;;;;;22.24;57.50;100064.16;5078811;28;20271;-67
2023/08/05 00:04:26;;;;;;;6.05;2.60;;;;;;;22.18;58.02;100054.88;5087820;28;20225;-70
2023/08/05 00:06:54;;;;;;;4.78;2.05;;;;;;;22.14;58.18;100055.97;5084835;28;20232;-69
2023/08/05 00:09:22;;;;;;;5.18;2.38;;;;;;;22.10;58.09;100057.06;5092628;28;20212;-67
2023/08/05 00:11:50;;;;;;;5.03;2.33;;;;;;;22.05;58.28;100048.59;5086491;28;20713;-68
2023/08/05 00:14:18;;;;;;;3.50;2.08;;;;;;;21.99;58.86;100041.13;5084918;28;20232;-69
2023/08/05 00:16:46;;;;;;;4.70;2.40;;;;;;;21.93;58.85;100033.59;5089094;28;20655;-65
2023/08/05 00:19:15;;;;;;;6.13;2.50;;;;;;;21.89;58.80;100032.94;5081641;28;20228;-68
2023/08/05 00:21:45;;;;;;;3.90;2.38;;;;;;;21.88;58.85;100014.69;5089287;28;20299;-71
2023/08/05 00:24:13;;;;;;;5.20;2.53;;;;;;;21.88;58.93;100012.88;5091290;28;20212;-68
2023/08/05 00:26:41;;;;;;;5.07;2.33;;;;;;;21.88;59.13;100010.28;5092123;28;20230;-68
2023/08/05 00:29:09;;;;;;;6.07;2.55;;;;;;;21.93;58.96;100020.47;5088503;28;20232;-69
2023/08/05 00:31:37;;;;;;;3.97;2.63;;;;;;;21.92;59.24;100024.06;5090093;28;20201;-68
2023/08/05 00:34:05;;;;;;;15.48;12.40;;;;;;;21.92;59.22;100024.88;5080903;28;20280;-72
2023/08/05 00:36:33;;;;;;;5.72;3.63;;;;;;;21.91;59.01;100030.25;5085628;28;20670;-68
2023/08/05 00:39:03;;;;;;;7.28;2.95;;;;;;;21.87;59.09;100023.47;5087942;28;20234;-69
2023/08/05 00:41:30;;;;;;;2.80;2.45;;;;;;;21.84;59.21;100021.03;5084697;28;20204;-67
2023/08/05 00:43:58;;;;;;;4.65;2.53;;;;;;;21.80;59.49;100016.88;5089832;28;20213;-68
2023/08/05 00:46:26;;;;;;;4.35;2.92;;;;;;;21.74;59.36;100014.63;5087667;28;20291;-70
2023/08/05 00:48:55;;;;;;;4.05;2.55;;;;;;;21.66;59.49;100018.53;5086398;28;20296;-68
2023/08/05 00:51:23;;;;;;;6.05;2.85;;;;;;;21.62;59.44;100021.44;5089652;28;20219;-69
2023/08/05 00:53:51;;;;;;;9.48;2.97;;;;;;;21.57;59.59;100024.31;5084247;28;20189;-69
2023/08/05 00:56:20;;;;;;;3.55;2.45;;;;;;;21.51;59.95;100011.56;5087128;28;20193;-68
2023/08/05 00:58:48;;;;;;;3.45;2.75;;;;;;;21.50;59.92;100007.22;5085937;28;20247;-68
2023/08/05 01:01:17;;;;;;;4.80;2.85;;;;;;;21.46;60.02;100005.72;5088905;28;20270;-67
2023/08/05 01:03:45;;;;;;;4.93;2.72;;;;;;;21.42;60.42;100001.59;5088792;28;20622;-66
2023/08/05 01:06:13;;;;;;;4.05;2.60;;;;;;;21.34;60.75;99995.94;5089040;28;20208;-68
2023/08/05 01:08:43;;;;;;;4.00;3.08;;;;;;;21.30;60.92;100004.88;5089736;28;20239;-68
2023/08/05 01:11:12;;;;;;;4.43;2.40;;;;;;;21.30;61.21;100002.28;5084859;28;20316;-68
2023/08/05 01:13:44;;;;;;;2.72;2.13;;;;;;;21.33;61.44;100007.34;5084996;28;20208;-69
2023/08/05 01:16:11;;;;;;;5.57;2.40;;;;;;;21.35;61.72;100005.50;5086923;28;20189;-67
2023/08/05 01:18:40;;;;;;;3.88;2.45;;;;;;;21.35;61.86;100003.72;5089297;28;20235;-68
2023/08/05 01:21:14;;;;;;;4.32;2.40;;;;;;;21.37;61.98;100009.72;5090409;28;20204;-67
2023/08/05 01:23:57;;;;;;;22.83;18.15;;;;;;;21.38;61.98;99998.28;5087588;28;20281;-69
2023/08/05 01:26:27;;;;;;;5.70;3.60;;;;;;;21.39;62.06;99993.91;5092362;28;20208;-69
2023/08/05 01:28:55;;;;;;;5.80;3.00;;;;;;;21.38;62.18;99989.59;5083106;28;20288;-67
2023/08/05 01:31:25;;;;;;;5.13;2.58;;;;;;;21.36;62.41;99991.47;5091314;28;20243;-67
2023/08/05 01:33:53;;;;;;;4.15;2.65;;;;;;;21.33;62.42;99991.63;5090021;28;20192;-69
2023/08/05 01:36:21;;;;;;;5.60;2.90;;;;;;;21.30;62.67;99989.16;5094287;28;20212;-67
2023/08/05 01:38:49;;;;;;;4.82;2.38;;;;;;;21.20;62.92;99987.03;5088868;28;20208;-69
2023/08/05 01:41:17;;;;;;;4.03;2.75;;;;;;;21.17;63.32;99986.38;5084970;28;20201;-68
2023/08/05 01:43:47;;;;;;;6.82;2.72;;;;;;;21.14;63.19;99994.44;5092940;28;20220;-68
2023/08/05 01:46:14;;;;;;;12.65;3.70;;;;;;;21.11;63.47;100011.16;5088036;28;20204;-67
2023/08/05 01:48:43;;;;;;;8.05;3.67;;;;;;;21.07;63.58;100009.66;5092429;28;20207;-67
2023/08/05 01:51:11;;;;;;;4.53;3.25;;;;;;;21.05;63.80;100011.50;5091403;28;20228;-69
2023/08/05 01:53:38;;;;;;;4.13;3.00;;;;;;;21.02;64.01;100016.91;5090866;28;20208;-67
2023/08/05 01:56:06;;;;;;;6.70;3.72;;;;;;;20.97;64.42;100011.91;5091512;28;20212;-68
2023/08/05 01:58:35;;;;;;;5.88;3.20;;;;;;;20.93;64.73;100020.88;5090760;28;20627;-66
2023/08/05 02:01:04;;;;;;;7.38;3.28;;;;;;;20.91;64.70;100011.41;5090828;28;20761;-69
2023/08/05 02:03:32;;;;;;;7.57;3.25;;;;;;;20.84;65.19;100000.44;5082160;28;20206;-67
2023/08/05 02:06:00;;;;;;;5.45;3.50;;;;;;;20.79;65.24;100004.22;5088902;28;20230;-68
2023/08/05 02:08:28;;;;;;;4.38;3.30;;;;;;;20.74;65.69;100005.31;5089859;28;20236;-67
2023/08/05 02:10:56;;;;;;;7.82;3.50;;;;;;;20.70;65.87;100001.19;5091743;28;20200;-66
2023/08/05 02:13:24;;;;;;;6.68;3.20;;;;;;;20.68;65.97;99991.72;5092684;28;20671;-67
2023/08/05 02:15:52;;;;;;;5.20;3.60;;;;;;;20.62;66.32;99998.16;5093104;28;20209;-66
2023/08/05 02:18:21;;;;;;;6.22;3.20;;;;;;;20.61;66.42;99998.22;5089313;28;20336;-66
2023/08/05 02:20:49;;;;;;;8.85;3.58;;;;;;;20.62;66.32;99999.88;5084145;28;20599;-67
2023/08/05 02:23:17;;;;;;;4.97;3.28;;;;;;;20.61;66.35;99998.22;5088147;28;20213;-68
2023/08/05 02:25:45;;;;;;;4.65;3.28;;;;;;;20.56;66.47;99989.75;5090426;28;20217;-68
2023/08/05 02:28:13;;;;;;;5.38;3.53;;;;;;;20.53;66.47;100000.41;5091088;28;20206;-68
2023/08/05 02:30:41;;;;;;;7.60;3.17;;;;;;;20.46;66.74;100010.31;5084343;28;20742;-67
2023/08/05 02:33:09;;;;;;;3.58;3.00;;;;;;;20.38;66.98;99999.41;5080731;28;20205;-67
2023/08/05 02:35:38;;;;;;;8.18;3.42;;;;;;;20.34;67.14;99998.72;5095573;28;20287;-69
2023/08/05 02:38:06;;;;;;;7.40;3.58;;;;;;;20.28;67.29;100009.50;5087840;28;20212;-67
2023/08/05 02:40:34;;;;;;;7.43;3.85;;;;;;;20.22;67.04;100005.44;5082394;28;20584;-67
2023/08/05 02:43:02;;;;;;;6.53;2.95;;;;;;;20.14;67.25;100002.41;5084022;28;20225;-67
2023/08/05 02:45:30;;;;;;;5.65;3.33;;;;;;;20.07;67.26;100008.88;5091392;28;20217;-67
2023/08/05 02:47:58;;;;;;;7.18;3.20;;;;;;;20.01;67.31;100012.63;5102335;28;20219;-67
2023/08/05 02:50:26;;;;;;;4.20;2.85;;;;;;;19.99;66.96;100016.22;5090996;28;20211;-69
2023/08/05 02:52:55;;;;;;;6.53;3.10;;;;;;;19.92;67.40;100031.41;5089499;28;20208;-66
2023/08/05 02:55:23;;;;;;;5.45;3.10;;;;;;;19.89;67.18;100028.94;5087051;28;20200;-68
2023/08/05 02:57:51;;;;;;;7.10;3.70;;;;;;;19.88;67.09;100039.47;5087578;28;20293;-70
2023/08/05 03:00:19;;;;;;;7.47;3.50;;;;;;;19.86;66.81;100036.09;5086533;28;20569;-64
2023/08/05 03:02:47;;;;;;;7.35;3.60;;;;;;;19.84;66.61;100043.16;5089800;28;20239;-67
2023/08/05 03:05:15;;;;;;;11.45;3.35;;;;;;;19.79;66.67;100036.41;5093898;28;20732;-68
2023/08/05 03:07:43;;;;;;;5.65;4.47;;;;;;;19.78;66.42;100037.31;5090806;28;20228;-70
2023/08/05 03:10:13;;;;;;;5.82;3.20;;;;;;;19.77;66.22;100034.78;5090977;28;20192;-68
2023/08/05 03:12:40;;;;;;;3.42;3.13;;;;;;;19.74;65.64;100040.19;5084898;28;20238;-67
2023/08/05 03:15:09;;;;;;;5.32;2.97;;;;;;;19.71;65.62;100050.78;5088683;28;20736;-67
2023/08/05 03:17:37;;;;;;;5.35;3.72;;;;;;;19.70;65.53;100055.16;5079968;28;20229;-67
2023/08/05 03:20:07;;;;;;;4.45;3.22;;;;;;;19.68;65.32;100043.09;5093193;28;20208;-68
2023/08/05 03:22:35;;;;;;;4.68;2.88;;;;;;;19.68;65.74;100041.31;5090949;28;20681;-67
2023/08/05 03:25:03;;;;;;;7.03;3.58;;;;;;;19.69;65.45;100037.75;5091522;28;20212;-66
2023/08/05 03:27:32;;;;;;;4.80;3.03;;;;;;;19.67;65.21;100031.78;5090392;28;20212;-68
2023/08/05 03:30:00;;;;;;;7.75;3.05;;;;;;;19.66;65.48;100019.66;5084070;28;20201;-66
2023/08/05 03:32:28;;;;;;;3.80;2.90;;;;;;;19.68;65.15;100017.78;5090396;28;20201;-67
2023/08/05 03:34:56;;;;;;;4.22;2.63;;;;;;;19.69;64.94;100001.16;5088263;28;20192;-67
2023/08/05 03:37:24;;;;;;;3.85;3.15;;;;;;;19.68;65.11;99991.63;5090286;28;20232;-68
2023/08/05 03:39:52;;;;;;;5.13;2.72;;;;;;;19.70;65.01;99992.44;5090576;28;20207;-67
2023/08/05 03:42:20;;;;;;;3.40;2.80;;;;;;;19.74;64.90;100004.41;5086230;28;20211;-67
2023/08/05 03:44:49;;;;;;;3.60;3.00;;;;;;;19.75;64.23;100003.50;5085293;28;20235;-67
2023/08/05 03:47:17;;;;;;;5.45;2.95;;;;;;;19.79;64.23;100005.03;5087946;28;20668;-65
2023/08/05 03:49:46;;;;;;;5.00;2.72;;;;;;;19.82;63.76;100000.56;5084396;28;20263;-65
2023/08/05 03:52:15;;;;;;;4.50;2.63;;;;;;;19.82;63.59;99998.78;5083452;28;20673;-66
2023/08/05 03:54:43;;;;;;;3.97;2.67;;;;;;;19.85;63.71;100008.28;5087150;28;20555;-66
2023/08/05 03:57:11;;;;;;;7.53;2.75;;;;;;;19.87;63.46;99982.88;5086024;28;20682;-67
2023/08/05 03:59:40;;;;;;;3.65;2.65;;;;;;;19.92;63.41;99986.09;5091436;28;20208;-66
2023/08/05 04:02:10;;;;;;;11.95;2.70;;;;;;;19.96;63.06;99982.41;5088050;28;20197;-67
2023/08/05 04:04:37;;;;;;;3.70;2.30;;;;;;;19.99;62.78;99979.63;5078454;28;20725;-64
2023/08/05 04:07:06;;;;;;;2.92;2.40;;;;;;;19.98;62.82;99988.41;5090381;28;20199;-66
2023/08/05 04:09:35;;;;;;;3.58;2.60;;;;;;;19.96;62.92;99987.66;5088631;28;20555;-67
2023/08/05 04:12:08;;;;;;;3.58;2.47;;;;;;;19.99;62.56;99990.06;5081602;28;20591;-67
2023/08/05 04:14:38;;;;;;;8.05;2.83;;;;;;;20.00;62.42;99986.56;5090769;28;20714;-67
2023/08/05 04:17:08;;;;;;;5.05;2.58;;;;;;;20.04;62.38;99993.31;5086810;28;20214;-68
2023/08/05 04:19:37;;;;;;;3.78;2.75;;;;;;;20.07;62.27;99997.53;5090059;28;20204;-66
2023/08/05 04:22:06;;;;;;;4.50;2.70;;;;;;;20.07;62.44;100003.63;5082509;28;20213;-65
2023/08/05 04:24:34;;;;;;;4.45;2.85;;;;;;;20.10;62.05;99990.38;5090647;28;20215;-66
2023/08/05 04:27:03;;;;;;;3.58;2.90;;;;;;;20.13;62.56;99990.22;5088514;28;20686;-67
2023/08/05 04:29:31;;;;;;;6.07;3.20;;;;;;;20.16;62.32;99989.22;5081554;28;20208;-67
2023/08/05 04:31:59;;;;;;;5.18;2.63;;;;;;;20.21;62.48;99979.34;5084649;28;20208;-67
2023/08/05 04:34:29;;;;;;;3.78;2.95;;;;;;;20.29;62.19;99987.66;5090961;28;20270;-67
2023/08/05 04:36:58;;;;;;;7.15;4.57;;;;;;;20.35;62.04;99992.56;5088516;28;20587;-68
2023/08/05 04:39:26;;;;;;;8.27;3.58;;;;;;;20.38;61.63;99988.94;5085574;28;20563;-68
2023/08/05 04:41:54;;;;;;;5.30;3.55;;;;;;;20.39;61.62;99988.84;5090709;28;20655;-68
2023/08/05 04:44:25;;;;;;;4.43;2.60;;;;;;;20.39;61.84;99991.47;5087368;28;20687;-67
2023/08/05 04:46:53;;;;;;;7.47;3.58;;;;;;;20.35;62.10;99997.78;5089531;28;20220;-67
2023/08/05 04:49:21;;;;;;;5.35;2.85;;;;;;;20.30;61.82;99991.97;5085394;28;20640;-68
2023/08/05 04:51:49;;;;;;;5.93;2.58;;;;;;;20.21;62.33;99981.97;5086591;28;20212;-67
2023/08/05 04:54:18;;;;;;;6.40;3.33;;;;;;;20.18;62.23;99972.53;5088994;28;20562;-67
2023/08/05 04:56:47;;;;;;;7.38;3.30;;;;;;;20.16;62.57;99974.38;5081114;28;20632;-66
2023/08/05 04:59:15;;;;;;;6.13;3.10;;;;;;;20.13;62.88;99973.69;5090031;28;20205;-68
2023/08/05 05:01:43;;;;;;;3.92;2.65;;;;;;;20.13;62.94;99961.44;5087235;28;20205;-66
2023/08/05 05:04:10;;;;;;;6.43;3.63;;;;;;;20.14;62.68;99973.63;5093187;28;20242;-66
2023/08/05 05:06:38;;;;;;;6.45;3.60;;;;;;;20.13;62.77;99964.06;5103506;28;20568;-67
2023/08/05 05:09:06;;;;;;;5.90;3.10;;;;;;;20.15;63.12;99970.06;5090967;28;20262;-67
2023/08/05 05:11:36;;;;;;;9.02;3.88;;;;;;;20.20;62.92;99965.44;5083210;28;20207;-68
2023/08/05 05:14:06;;;;;;;5.13;3.03;;;;;;;20.27;62.83;99974.66;5095654;28;20201;-68
2023/08/05 05:16:33;;;;;;;4.22;2.95;;;;;;;20.35;62.61;99974.25;5094119;28;20204;-67
2023/08/05 05:19:01;;;;;;;6.57;3.40;;;;;;;20.39;62.36;99973.13;5093334;28;20232;-68
2023/08/05 05:21:30;;;;;;;4.22;2.75;;;;;;;20.44;62.68;99976.38;5088017;28;20197;-67
2023/08/05 05:23:58;;;;;;;5.72;2.80;;;;;;;20.54;62.20;99976.75;5087154;28;20202;-68
2023/08/05 05:26:26;;;;;;;4.80;2.95;;;;;;;20.57;61.99;99973.97;5089584;28;20224;-69
2023/08/05 05:28:56;;;;;;;4.82;2.83;;;;;;;20.66;61.65;99989.19;5085650;28;20238;-67
2023/08/05 05:31:23;;;;;;;3.25;2.38;;;;;;;20.72;61.51;99980.97;5092516;28;20204;-68
2023/08/05 05:33:51;;;;;;;5.95;2.80;;;;;;;20.81;61.23;99984.06;5091065;28;20291;-67
2023/08/05 05:36:20;;;;;;;7.60;2.50;;;;;;;20.91;61.13;99974.72;5091941;28;20257;-68
2023/08/05 05:38:48;;;;;;;6.25;2.90;;;;;;;21.07;60.60;99975.59;5087942;28;20212;-68
2023/08/05 05:41:16;;;;;;;6.25;3.05;;;;;;;21.25;60.04;99973.72;5088237;28;20196;-69
2023/08/05 05:43:44;;;;;;;5.78;2.92;;;;;;;21.38;59.60;99963.38;5092196;28;20213;-69
2023/08/05 05:46:14;;;;;;;8.05;2.92;;;;;;;21.52;59.35;99962.59;5086285;28;20325;-68
2023/08/05 05:48:42;;;;;;;6.03;2.85;;;;;;;21.55;58.92;99944.91;5089144;28;20579;-67
2023/08/05 05:51:10;;;;;;;5.63;3.13;;;;;;;21.63;59.11;99950.53;5094614;28;20196;-67
2023/08/05 05:53:38;;;;;;;6.13;2.92;;;;;;;21.75;58.67;99948.13;5099896;28;20742;-67
2023/08/05 05:56:06;;;;;;;7.82;3.63;;;;;;;21.88;58.49;99951.72;5085666;28;20534;-68
2023/08/05 05:58:35;;;;;;;6.50;2.90;;;;;;;22.04;58.04;99949.84;5092914;28;20200;-66
2023/08/05 06:01:03;;;;;;;4.72;2.92;;;;;;;22.24;57.73;99940.81;5081553;28;20201;-67
2023/08/05 06:03:33;;;;;;;3.38;2.35;;;;;;;22.26;56.63;99945.94;5083805;28;20595;-67
2023/08/05 06:06:02;;;;;;;5.07;2.42;;;;;;;22.15;56.74;99954.47;5091192;28;20236;-68
2023/08/05 06:08:30;;;;;;;3.95;2.70;;;;;;;21.97;57.33;99951.16;5085596;28;20292;-69
2023/08/05 06:11:02;;;;;;;4.40;2.55;;;;;;;21.80;57.87;99952.19;5083933;28;20651;-68
2023/08/05 06:13:30;;;;;;;3.08;2.58;;;;;;;21.65;58.35;99964.41;5091500;28;20599;-68
2023/08/05 06:15:58;;;;;;;5.78;2.67;;;;;;;21.52;58.73;99960.81;5091629;28;20201;-67
2023/08/05 06:18:26;;;;;;;5.45;2.90;;;;;;;21.43;59.15;99956.13;5087092;28;20675;-69
2023/08/05 06:20:55;;;;;;;9.60;2.75;;;;;;;21.37;59.83;99951.22;5091015;28;20228;-69
2023/08/05 06:23:23;;;;;;;5.07;2.65;;;;;;;21.34;60.37;99927.81;5087526;28;20212;-68
2023/08/05 06:25:51;;;;;;;4.05;2.53;;;;;;;21.29;61.10;99921.97;5090203;28;20208;-69
2023/08/05 06:28:19;;;;;;;3.60;2.75;;;;;;;21.27;61.41;99923.81;5090856;28;20224;-68
2023/08/05 06:30:47;;;;;;;6.47;2.78;;;;;;;21.27;61.38;99929.06;5095315;28;20200;-68
2023/08/05 06:33:15;;;;;;;4.95;2.75;;;;;;;21.27;61.51;99940.38;5086709;28;20256;-71
2023/08/05 06:35:43;;;;;;;3.00;2.63;;;;;;;21.27;61.62;99939.53;5088937;28;20546;-67
2023/08/05 06:38:12;;;;;;;10.05;2.90;;;;;;;21.26;62.19;99936.06;5091794;28;20228;-68
2023/08/05 06:40:41;;;;;;;5.05;2.97;;;;;;;21.24;61.91;99930.06;5092327;28;20745;-67
2023/08/05 06:43:09;;;;;;;6.45;2.95;;;;;;;21.23;62.40;99934.47;5088555;28;20211;-67
2023/08/05 06:45:37;;;;;;;8.43;3.00;;;;;;;21.22;62.77;99945.06;5087179;28;20232;-68
2023/08/05 06:48:06;;;;;;;7.15;3.30;;;;;;;21.19;63.06;99955.69;5086100;28;20208;-68
2023/08/05 06:50:34;;;;;;;6.30;2.90;;;;;;;21.16;64.29;99963.72;5089960;28;20203;-66
2023/08/05 06:53:02;;;;;;;4.22;3.13;;;;;;;21.09;64.73;99960.59;5083161;28;20204;-67
2023/08/05 06:55:31;;;;;;;5.40;2.88;;;;;;;21.08;65.16;99951.06;5091448;28;20205;-66
2023/08/05 06:57:59;;;;;;;3.85;2.30;;;;;;;21.02;65.37;99935.69;5086350;28;20647;-67
2023/08/05 07:00:27;;;;;;;7.40;2.80;;;;;;;21.02;66.02;99940.94;5089953;28;20204;-66
2023/08/05 07:02:55;;;;;;;3.47;2.92;;;;;;;21.02;66.54;99959.25;5087684;28;20254;-67
2023/08/05 07:05:23;;;;;;;4.50;3.00;;;;;;;21.03;66.35;99979.31;5089554;28;20215;-68
2023/08/05 07:07:51;;;;;;;7.78;3.10;;;;;;;21.05;66.55;99982.66;5083963;28;20239;-62
2023/08/05 07:10:22;;;;;;;5.18;2.75;;;;;;;21.08;66.49;99998.22;5091428;28;20197;-65
2023/08/05 07:12:51;;;;;;;5.82;3.22;;;;;;;21.13;66.89;100011.06;5091550;28;20788;-64
2023/08/05 07:15:19;;;;;;;2.95;2.33;;;;;;;21.12;66.64;100015.47;5089626;28;20554;-63
2023/08/05 07:17:47;;;;;;;6.13;2.88;;;;;;;21.13;67.09;100009.28;5089335;28;20236;-64
2023/08/05 07:20:15;;;;;;;8.48;3.15;;;;;;;21.09;66.40;100009.53;5089979;28;20261;-63
2023/08/05 07:22:43;;;;;;;10.32;3.30;;;;;;;21.01;65.96;100007.34;5091062;28;20659;-64
2023/08/05 07:25:11;;;;;;;10.40;3.83;;;;;;;20.93;66.65;99999.09;5085945;28;20210;-63
2023/08/05 07:27:39;;;;;;;5.15;3.17;;;;;;;20.91;67.04;99982.59;5087905;28;20630;-64
2023/08/05 07:30:10;;;;;;;7.40;3.30;;;;;;;20.92;67.03;99981.69;5094655;28;20199;-65
2023/08/05 07:32:38;;;;;;;7.63;3.42;;;;;;;20.86;66.78;99966.31;5092539;28;20204;-65
2023/08/05 07:35:08;;;;;;;10.10;4.20;;;;;;;20.83;67.13;99971.69;5092955;28;20695;-64
2023/08/05 07:37:36;;;;;;;7.05;3.33;;;;;;;20.85;67.39;99975.94;5085961;28;20220;-64
2023/08/05 07:40:12;;;;;;;5.90;3.25;;;;;;;20.86;67.73;99984.63;5091759;28;20704;-62
2023/08/05 07:42:40;;;;;;;7.35;3.00;;;;;;;20.82;67.89;99988.34;5079326;28;20200;-63
2023/08/05 07:45:14;;;;;;;8.20;3.60;;;;;;;20.77;68.05;100003.44;5090492;28;20266;-64
2023/08/05 07:47:42;;;;;;;8.73;3.13;;;;;;;20.69;68.89;100006.47;5086649;28;20216;-64
2023/08/05 07:50:11;;;;;;;4.55;3.00;;;;;;;20.67;69.16;100018.84;5091506;28;20252;-64
2023/08/05 07:52:39;;;;;;;5.75;3.30;;;;;;;20.61;69.30;100027.84;5088504;28;20250;-63
2023/08/05 07:55:07;;;;;;;6.75;3.30;;;;;;;20.55;69.39;100030.81;5091122;28;20200;-64
2023/08/05 07:57:35;;;;;;;6.63;3.42;;;;;;;20.50;69.96;100028.41;5090223;28;20287;-64
2023/08/05 08:00:04;;;;;;;6.95;3.63;;;;;;;20.53;70.13;100027.41;5089442;28;20257;-63
2023/08/05 08:02:34;;;;;;;8.18;4.00;;;;;;;20.57;70.21;100028.09;5088294;28;20227;-63
2023/08/05 08:05:05;;;;;;;6.90;5.10;;;;;;;20.54;70.35;100023.03;5090833;28;20243;-64
2023/08/05 08:07:33;;;;;;;12.48;4.22;;;;;;;20.45;70.39;99999.00;5088358;28;20212;-64
2023/08/05 08:10:01;;;;;;;10.45;4.18;;;;;;;20.40;71.22;99994.91;5077260;28;20680;-64
2023/08/05 08:12:29;;;;;;;6.60;3.55;;;;;;;20.41;71.65;100021.03;5087304;28;20717;-65
2023/08/05 08:14:57;;;;;;;8.13;4.25;;;;;;;20.45;71.89;100019.09;5090421;28;20213;-64
2023/08/05 08:17:25;;;;;;;6.28;3.45;;;;;;;20.50;72.59;100019.72;5089348;28;20353;-65
2023/08/05 08:19:54;;;;;;;10.50;3.85;;;;;;;20.52;73.12;100007.41;5090915;28;20670;-66
2023/08/05 08:22:22;;;;;;;7.60;5.13;;;;;;;20.52;73.66;100017.03;5090387;28;20246;-63
2023/08/05 08:24:50;;;;;;;7.18;3.90;;;;;;;20.39;73.77;100024.66;5072889;28;20296;-64
2023/08/05 08:27:18;;;;;;;7.70;4.25;;;;;;;20.31;73.88;100029.44;5086335;28;20212;-65
2023/08/05 08:29:46;;;;;;;8.93;4.50;;;;;;;20.25;74.36;100023.63;5093687;28;20717;-64
2023/08/05 08:32:14;;;;;;;6.47;4.00;;;;;;;20.22;73.83;100026.38;5086310;28;20224;-65
2023/08/05 08:34:42;;;;;;;9.25;4.00;;;;;;;20.14;73.99;100033.78;5083030;28;20197;-64
2023/08/05 08:37:11;;;;;;;5.88;4.00;;;;;;;20.07;74.41;100042.88;5093742;28;20233;-65
2023/08/05 08:39:40;;;;;;;6.57;3.80;;;;;;;20.06;74.57;100042.94;5094096;28;20666;-64
2023/08/05 08:42:08;;;;;;;5.78;4.53;;;;;;;20.10;75.67;100028.75;5091014;28;20211;-62
2023/08/05 08:44:38;;;;;;;9.95;4.35;;;;;;;20.16;76.28;100021.47;5093920;28;20239;-64
2023/08/05 08:47:06;;;;;;;7.72;3.97;;;;;;;20.18;76.55;100014.38;5096708;28;20295;-65
2023/08/05 08:49:37;;;;;;;7.38;4.20;;;;;;;20.14;75.89;100007.63;5094506;28;20569;-64
2023/08/05 08:52:07;;;;;;;5.00;3.72;;;;;;;20.03;75.83;100002.94;5092161;28;20831;-64
2023/08/05 08:54:41;;;;;;;5.05;3.83;;;;;;;19.90;76.17;99999.25;5094134;28;20310;-64
2023/08/05 08:57:13;;;;;;;4.30;3.90;;;;;;;19.85;76.59;100000.41;5089684;28;20739;-64
2023/08/05 08:59:41;;;;;;;7.72;4.38;;;;;;;19.85;76.64;99997.81;5093679;28;20565;-65
2023/08/05 09:02:12;;;;;;;5.32;4.32;;;;;;;19.77;76.34;99980.75;5090868;28;20204;-65
2023/08/05 09:04:42;;;;;;;6.63;4.22;;;;;;;19.70;76.69;99979.34;5088960;28;20682;-64
2023/08/05 09:07:11;;;;;;;6.50;4.10;;;;;;;19.67;77.74;99984.72;5091001;28;20639;-64
2023/08/05 09:09:41;;;;;;;6.60;3.80;;;;;;;19.64;77.92;99968.34;5087068;28;20217;-64
2023/08/05 09:12:10;;;;;;;5.10;4.05;;;;;;;19.63;78.21;99943.97;5091724;28;20261;-64
2023/08/05 09:14:38;;;;;;;5.95;4.10;;;;;;;19.59;78.06;99954.63;5089810;28;20284;-64
2023/08/05 09:17:06;;;;;;;7.28;3.63;;;;;;;19.50;78.25;99940.25;5086339;28;20208;-64
2023/08/05 09:19:34;;;;;;;6.82;4.63;;;;;;;19.46;79.02;99928.25;5090703;28;20211;-64
2023/08/05 09:22:02;;;;;;;7.88;4.30;;;;;;;19.51;78.91;99918.41;5092559;28;20564;-63
2023/08/05 09:24:30;;;;;;;5.57;4.10;;;;;;;19.55;79.08;99907.75;5089647;28;20197;-62
2023/08/05 09:27:00;;;;;;;7.18;3.53;;;;;;;19.58;78.84;99888.44;5083782;28;20200;-64
2023/08/05 09:29:29;;;;;;;7.93;4.60;;;;;;;19.65;78.82;99876.78;5092545;28;20227;-65
2023/08/05 09:31:58;;;;;;;8.63;3.97;;;;;;;19.66;79.15;99875.88;5088368;28;20197;-65
2023/08/05 09:34:33;;;;;;;8.93;5.15;;;;;;;19.65;79.29;99866.31;5091352;28;20661;-62
2023/08/05 09:37:02;;;;;;;7.15;4.07;;;;;;;19.65;79.23;99866.31;5089172;28;20207;-63
2023/08/05 09:39:44;;;;;;;6.45;3.60;;;;;;;19.61;79.48;99843.84;5092612;28;20283;-63
2023/08/05 09:42:24;;;;;;;6.65;4.10;;;;;;;19.58;79.37;99841.38;5089833;28;20200;-60
2023/08/05 09:44:54;;;;;;;6.13;3.50;;;;;;;19.54;79.49;99842.47;5086992;28;20714;-60
2023/08/05 09:47:29;;;;;;;4.00;3.42;;;;;;;19.51;79.17;99837.41;5090232;28;20287;-68
2023/08/05 09:50:04;;;;;;;19.83;4.70;;;;;;;19.49;79.24;99844.50;5086201;28;20276;-64
2023/08/05 09:52:34;;;;;;;5.25;3.47;;;;;;;19.45;79.49;99837.75;5089441;28;20200;-62
2023/08/05 09:55:05;;;;;;;4.65;2.90;;;;;;;19.41;79.75;99817.91;5091344;28;20211;-64
2023/08/05 09:57:36;;;;;;;8.48;3.75;;;;;;;19.36;79.86;99799.00;5082736;28;20208;-64
2023/08/05 10:00:08;;;;;;;6.03;3.30;;;;;;;19.29;79.92;99791.50;5093116;28;20257;-63
2023/08/05 10:02:36;;;;;;;3.50;2.63;;;;;;;19.22;80.17;99777.06;5085344;28;20205;-62
2023/08/05 10:05:04;;;;;;;5.35;3.67;;;;;;;19.21;80.23;99764.06;5093128;28;20239;-61
2023/08/05 10:07:32;;;;;;;5.13;3.47;;;;;;;19.20;80.57;99737.09;5089474;28;20667;-64
2023/08/05 10:10:00;;;;;;;5.10;3.35;;;;;;;19.20;80.79;99692.69;5085503;28;20213;-64
2023/08/05 10:12:33;;;;;;;4.25;2.33;;;;;;;19.16;81.24;99644.16;5098076;28;20207;-65
2023/08/05 10:15:04;;;;;;;4.28;2.80;;;;;;;19.06;81.92;99606.41;5089631;28;20201;-64
2023/08/05 10:17:36;;;;;;;3.55;2.70;;;;;;;18.99;82.79;99547.59;5091901;28;20319;-62
2023/08/05 10:20:06;;;;;;;5.68;3.30;;;;;;;18.92;83.39;99538.41;5091868;28;20337;-62
2023/08/05 10:22:34;;;;;;;4.68;3.00;;;;;;;18.94;83.85;99583.56;5091010;28;20230;-61
2023/08/05 10:25:02;;;;;;;4.80;3.33;;;;;;;19.10;83.93;99701.94;5095239;28;20229;-62
2023/08/05 10:27:37;;;;;;;4.60;3.13;;;;;;;19.37;83.25;99788.50;5092223;28;20197;-62
2023/08/05 10:30:11;;;;;;;3.78;2.65;;;;;;;19.57;81.57;99846.72;5096240;28;20788;-63
2023/08/05 10:32:53;;;;;;;7.63;3.03;;;;;;;19.68;80.01;99840.03;5086401;28;20334;-64
2023/08/05 10:35:26;;;;;;;2.60;2.40;;;;;;;19.88;80.03;99827.66;5091338;28;20253;-63
2023/08/05 10:38:09;;;;;;;3.13;2.35;;;;;;;20.09;78.88;99834.34;5091653;28;20282;-63
2023/08/05 10:40:39;;;;;;;4.22;2.50;;;;;;;20.24;78.22;99825.66;5094834;28;20200;-67
2023/08/05 10:43:07;;;;;;;2.33;2.13;;;;;;;20.37;78.10;99832.84;5093807;28;20208;-65
2023/08/05 10:45:40;;;;;;;3.10;2.17;;;;;;;20.46;77.24;99837.56;5095090;28;20231;-68
2023/08/05 10:48:09;;;;;;;3.63;2.42;;;;;;;20.50;76.49;99831.25;5092107;28;20258;-65
2023/08/05 10:50:41;;;;;;;3.20;2.20;;;;;;;20.51;75.85;99825.13;5101362;28;20650;-66
2023/08/05 10:53:12;;;;;;;3.97;2.38;;;;;;;20.49;76.34;99829.56;5094475;28;20197;-68
2023/08/05 10:55:50;;;;;;;3.72;2.53;;;;;;;20.52;76.87;99811.09;5091597;28;20212;-65
2023/08/05 10:58:23;;;;;;;5.30;2.80;;;;;;;20.57;76.74;99801.19;5090791;28;20197;-66
2023/08/05 11:00:58;;;;;;;2.88;2.22;;;;;;;20.65;76.74;99791.13;5087897;28;20687;-67
2023/08/05 11:03:42;;;;;;;4.38;2.67;;;;;;;20.79;76.34;99781.63;5088776;28;20663;-67
2023/08/05 11:06:13;;;;;;;3.75;2.40;;;;;;;20.90;75.92;99777.47;5081017;28;20670;-65
2023/08/05 11:08:42;;;;;;;2.70;2.33;;;;;;;21.07;74.78;99781.72;5087338;28;20204;-67
2023/08/05 11:11:13;;;;;;;3.40;2.20;;;;;;;21.19;73.81;99791.47;5099202;28;20732;-67
2023/08/05 11:13:42;;;;;;;4.15;2.65;;;;;;;21.20;73.77;99792.28;5089549;28;20597;-67
2023/08/05 11:16:13;;;;;;;3.28;2.42;;;;;;;21.25;73.95;99797.28;5087100;28;20551;-68
2023/08/05 11:18:43;;;;;;;3.17;2.38;;;;;;;21.23;73.35;99802.59;5089459;28;20285;-67
2023/08/05 11:21:14;;;;;;;3.95;2.78;;;;;;;21.20;73.53;99793.13;5084959;28;20211;-65
2023/08/05 11:23:44;;;;;;;4.28;2.60;;;;;;;21.14;73.76;99792.69;5088768;28;20659;-64
2023/08/05 11:26:12;;;;;;;4.95;2.42;;;;;;;21.10;73.72;99784.16;5089458;28;20201;-65
2023/08/05 11:28:44;;;;;;;3.30;2.58;;;;;;;21.05;73.86;99791.44;5083968;28;20224;-64
2023/08/05 11:31:22;;;;;;;4.40;2.47;;;;;;;20.96;74.06;99778.88;5083370;28;20204;-67
2023/08/05 11:33:51;;;;;;;2.58;2.30;;;;;;;20.89;74.49;99782.81;5083946;28;20204;-67
2023/08/05 11:36:24;;;;;;;3.30;2.17;;;;;;;20.83;74.66;99783.16;5077535;28;20297;-67
2023/08/05 11:38:54;;;;;;;3.03;2.30;;;;;;;20.80;74.62;99775.47;5089833;28;20207;-68